TUA179 UTAA-UTAV
Flight info
| Callsign | TUA179 |
|---|---|
| Flight time | 0h 48m |
| Altitude | 25000 |
| Route | N0450F250 URABA A117 DUTAR |
| Aircraft | B737/M-VGDW/C |
Departure
| Time | 2026-04-13 19:00 |
|---|---|
| Airport | Ashgabat International Airport (UTAA) |
Arrival
| Time | 2026-04-13 19:48 |
|---|---|
| Airport | Türkmenabat International Airport (UTAV) |
| Time | Latitude | Longitude | Altitude | Speed | Heading |
|---|---|---|---|---|---|
| 2026-04-13 18:33 | 37.98163 | 58.37036 | 699 ft | 0 kts | 28° |
| 2026-04-13 18:34 | 37.98162 | 58.37036 | 699 ft | 0 kts | 28° |
| 2026-04-13 18:50 | 37.98158 | 58.37034 | 700 ft | 2 kts | 28° |
| 2026-04-13 18:51 | 37.98145 | 58.37025 | 700 ft | 2 kts | 28° |
| 2026-04-13 18:51 | 37.98131 | 58.37015 | 701 ft | 2 kts | 28° |
| 2026-04-13 18:51 | 37.98118 | 58.37006 | 701 ft | 2 kts | 28° |
| 2026-04-13 18:51 | 37.98105 | 58.36997 | 700 ft | 2 kts | 28° |
| 2026-04-13 18:52 | 37.98093 | 58.36985 | 700 ft | 2 kts | 58° |
| 2026-04-13 18:52 | 37.98088 | 58.36968 | 699 ft | 2 kts | 84° |
| 2026-04-13 18:52 | 37.98090 | 58.36949 | 699 ft | 2 kts | 111° |
| 2026-04-13 18:52 | 37.98093 | 58.36940 | 699 ft | 0 kts | 126° |
| 2026-04-13 18:53 | 37.98096 | 58.36934 | 699 ft | 0 kts | 119° |
| 2026-04-13 18:55 | 37.98096 | 58.36935 | 699 ft | 1 kts | 119° |
| 2026-04-13 18:55 | 37.98075 | 58.36982 | 699 ft | 7 kts | 119° |
| 2026-04-13 18:55 | 37.98036 | 58.37026 | 699 ft | 7 kts | 172° |
| 2026-04-13 18:55 | 37.97984 | 58.37005 | 699 ft | 8 kts | 209° |
| 2026-04-13 18:56 | 37.97907 | 58.36951 | 699 ft | 14 kts | 210° |
| 2026-04-13 18:56 | 37.97828 | 58.36893 | 700 ft | 9 kts | 210° |
| 2026-04-13 18:56 | 37.97795 | 58.36841 | 700 ft | 4 kts | 269° |
| 2026-04-13 18:56 | 37.97808 | 58.36794 | 700 ft | 7 kts | 285° |
| 2026-04-13 18:57 | 37.97790 | 58.36737 | 700 ft | 6 kts | 216° |
| 2026-04-13 18:57 | 37.97749 | 58.36707 | 700 ft | 6 kts | 209° |
| 2026-04-13 18:57 | 37.97707 | 58.36678 | 700 ft | 6 kts | 209° |
| 2026-04-13 18:57 | 37.97670 | 58.36650 | 700 ft | 6 kts | 210° |
| 2026-04-13 18:58 | 37.97646 | 58.36612 | 700 ft | 5 kts | 273° |
| 2026-04-13 18:58 | 37.97664 | 58.36574 | 700 ft | 5 kts | 300° |
| 2026-04-13 18:58 | 37.97669 | 58.36563 | 700 ft | 0 kts | 299° |
| 2026-04-13 18:59 | 37.97678 | 58.36543 | 700 ft | 16 kts | 299° |
| 2026-04-13 18:59 | 37.97865 | 58.36124 | 700 ft | 89 kts | 299° |
| 2026-04-13 18:59 | 37.98277 | 58.35197 | 700 ft | 149 kts | 298° |
| 2026-04-13 18:59 | 37.98812 | 58.34005 | 1214 ft | 153 kts | 299° |
| 2026-04-13 19:00 | 37.99165 | 58.33237 | 1649 ft | 155 kts | 300° |
| 2026-04-13 19:00 | 37.99926 | 58.31538 | 2217 ft | 177 kts | 299° |
| 2026-04-13 19:00 | 38.00538 | 58.30121 | 2623 ft | 196 kts | 299° |
| 2026-04-13 19:00 | 38.01232 | 58.28537 | 3120 ft | 213 kts | 300° |
| 2026-04-13 19:01 | 38.01990 | 58.26848 | 3632 ft | 229 kts | 302° |
| 2026-04-13 19:01 | 38.03066 | 58.25312 | 4161 ft | 244 kts | 326° |
| 2026-04-13 19:01 | 38.04653 | 58.24432 | 4679 ft | 258 kts | 348° |
| 2026-04-13 19:01 | 38.06502 | 58.24230 | 5163 ft | 274 kts | 4° |
| 2026-04-13 19:02 | 38.08360 | 58.24806 | 5745 ft | 282 kts | 29° |
| 2026-04-13 19:02 | 38.09859 | 58.26403 | 6475 ft | 284 kts | 56° |
| 2026-04-13 19:02 | 38.10787 | 58.28589 | 7250 ft | 285 kts | 73° |
| 2026-04-13 19:02 | 38.11306 | 58.31043 | 8005 ft | 289 kts | 81° |
| 2026-04-13 19:03 | 38.11607 | 58.33550 | 8800 ft | 293 kts | 87° |
| 2026-04-13 19:03 | 38.11791 | 58.36143 | 9588 ft | 298 kts | 88° |
| 2026-04-13 19:03 | 38.11980 | 58.38741 | 10351 ft | 305 kts | 87° |
| 2026-04-13 19:03 | 38.12221 | 58.41514 | 10952 ft | 321 kts | 86° |
| 2026-04-13 19:04 | 38.12503 | 58.44355 | 11504 ft | 338 kts | 85° |
| 2026-04-13 19:04 | 38.12825 | 58.47400 | 12038 ft | 354 kts | 85° |
| 2026-04-13 19:04 | 38.13167 | 58.50545 | 12696 ft | 366 kts | 85° |
| 2026-04-13 19:04 | 38.13518 | 58.53739 | 13555 ft | 371 kts | 84° |
| 2026-04-13 19:05 | 38.13880 | 58.57027 | 14420 ft | 376 kts | 84° |
| 2026-04-13 19:05 | 38.14241 | 58.60298 | 15261 ft | 382 kts | 84° |
| 2026-04-13 19:05 | 38.14611 | 58.63658 | 16154 ft | 386 kts | 84° |
| 2026-04-13 19:05 | 38.14983 | 58.67045 | 16976 ft | 391 kts | 85° |
| 2026-04-13 19:06 | 38.15361 | 58.70475 | 17740 ft | 397 kts | 85° |
| 2026-04-13 19:06 | 38.15748 | 58.73978 | 18527 ft | 402 kts | 84° |
| 2026-04-13 19:06 | 38.16140 | 58.77524 | 19300 ft | 407 kts | 84° |
| 2026-04-13 19:06 | 38.16531 | 58.81075 | 20084 ft | 411 kts | 84° |
| 2026-04-13 19:07 | 38.16927 | 58.84664 | 21118 ft | 407 kts | 84° |
| 2026-04-13 19:07 | 38.17317 | 58.88182 | 22141 ft | 403 kts | 84° |
| 2026-04-13 19:07 | 38.17706 | 58.91675 | 23015 ft | 402 kts | 84° |
| 2026-04-13 19:07 | 38.18096 | 58.95156 | 23792 ft | 402 kts | 84° |
| 2026-04-13 19:08 | 38.18488 | 58.98647 | 24526 ft | 403 kts | 84° |
| 2026-04-13 19:08 | 38.18887 | 59.02193 | 24868 ft | 408 kts | 84° |
| 2026-04-13 19:08 | 38.19288 | 59.05755 | 24879 ft | 405 kts | 84° |
| 2026-04-13 19:08 | 38.19687 | 59.09273 | 24874 ft | 403 kts | 84° |
| 2026-04-13 19:09 | 38.20088 | 59.12793 | 24876 ft | 403 kts | 84° |
| 2026-04-13 19:09 | 38.20492 | 59.16334 | 24876 ft | 404 kts | 84° |
| 2026-04-13 19:09 | 38.20892 | 59.19838 | 24878 ft | 403 kts | 84° |
| 2026-04-13 19:09 | 38.21297 | 59.23367 | 24877 ft | 403 kts | 84° |
| 2026-04-13 19:10 | 38.21703 | 59.26910 | 24876 ft | 403 kts | 84° |
| 2026-04-13 19:10 | 38.22110 | 59.30425 | 24878 ft | 403 kts | 83° |
| 2026-04-13 19:10 | 38.22635 | 59.33896 | 24876 ft | 404 kts | 79° |
| 2026-04-13 19:10 | 38.23332 | 59.37356 | 24877 ft | 406 kts | 76° |
| 2026-04-13 19:11 | 38.24111 | 59.40817 | 24876 ft | 405 kts | 75° |
| 2026-04-13 19:11 | 38.24902 | 59.44228 | 24874 ft | 406 kts | 75° |
| 2026-04-13 19:11 | 38.25699 | 59.47671 | 24878 ft | 406 kts | 75° |
| 2026-04-13 19:11 | 38.26481 | 59.51102 | 24878 ft | 406 kts | 76° |
| 2026-04-13 19:12 | 38.27255 | 59.54560 | 24875 ft | 406 kts | 76° |
| 2026-04-13 19:12 | 38.28008 | 59.57964 | 24878 ft | 406 kts | 76° |
| 2026-04-13 19:12 | 38.28771 | 59.61446 | 24876 ft | 406 kts | 76° |
| 2026-04-13 19:12 | 38.29518 | 59.64882 | 24874 ft | 406 kts | 76° |
| 2026-04-13 19:13 | 38.30267 | 59.68339 | 24874 ft | 406 kts | 77° |
| 2026-04-13 19:13 | 38.31016 | 59.71811 | 24877 ft | 406 kts | 77° |
| 2026-04-13 19:13 | 38.31755 | 59.75245 | 24877 ft | 405 kts | 77° |
| 2026-04-13 19:13 | 38.32497 | 59.78704 | 24878 ft | 404 kts | 77° |
| 2026-04-13 19:14 | 38.33242 | 59.82182 | 24879 ft | 405 kts | 77° |
| 2026-04-13 19:14 | 38.33973 | 59.85596 | 24876 ft | 405 kts | 77° |
| 2026-04-13 19:14 | 38.34713 | 59.89060 | 24876 ft | 404 kts | 77° |
| 2026-04-13 19:14 | 38.35450 | 59.92515 | 24878 ft | 404 kts | 77° |
| 2026-04-13 19:15 | 38.36181 | 59.95953 | 24877 ft | 405 kts | 77° |
| 2026-04-13 19:15 | 38.36909 | 59.99376 | 24874 ft | 405 kts | 77° |
| 2026-04-13 19:15 | 38.37646 | 60.02848 | 24876 ft | 404 kts | 77° |
| 2026-04-13 19:15 | 38.38383 | 60.06324 | 24879 ft | 404 kts | 77° |
| 2026-04-13 19:16 | 38.39114 | 60.09779 | 24876 ft | 405 kts | 77° |
| 2026-04-13 19:16 | 38.39838 | 60.13203 | 24877 ft | 405 kts | 77° |
| 2026-04-13 19:16 | 38.40565 | 60.16649 | 24879 ft | 405 kts | 77° |
| 2026-04-13 19:16 | 38.41298 | 60.20132 | 24878 ft | 406 kts | 77° |
| 2026-04-13 19:17 | 38.42030 | 60.23614 | 24881 ft | 405 kts | 77° |
| 2026-04-13 19:17 | 38.42747 | 60.27029 | 24887 ft | 405 kts | 77° |
| 2026-04-13 19:17 | 38.43475 | 60.30506 | 24882 ft | 407 kts | 77° |
| 2026-04-13 19:17 | 38.44201 | 60.33975 | 24883 ft | 405 kts | 77° |
| 2026-04-13 19:18 | 38.44925 | 60.37439 | 24881 ft | 404 kts | 76° |
| 2026-04-13 19:18 | 38.45645 | 60.40889 | 24881 ft | 405 kts | 76° |
| 2026-04-13 19:18 | 38.46366 | 60.44355 | 24884 ft | 405 kts | 76° |
| 2026-04-13 19:18 | 38.47089 | 60.47836 | 24883 ft | 406 kts | 77° |
| 2026-04-13 19:19 | 38.47810 | 60.51310 | 24882 ft | 405 kts | 76° |
| 2026-04-13 19:19 | 38.48528 | 60.54774 | 24883 ft | 406 kts | 76° |
| 2026-04-13 19:19 | 38.49242 | 60.58220 | 24887 ft | 405 kts | 76° |
| 2026-04-13 19:19 | 38.49962 | 60.61709 | 24884 ft | 405 kts | 76° |
| 2026-04-13 19:20 | 38.50656 | 60.65075 | 24892 ft | 406 kts | 77° |
| 2026-04-13 19:20 | 38.51387 | 60.68629 | 24888 ft | 405 kts | 77° |
| 2026-04-13 19:20 | 38.52101 | 60.72098 | 24888 ft | 406 kts | 77° |
| 2026-04-13 19:20 | 38.52817 | 60.75588 | 24891 ft | 404 kts | 77° |
| 2026-04-13 19:21 | 38.53520 | 60.79020 | 24891 ft | 405 kts | 77° |
| 2026-04-13 19:21 | 38.54239 | 60.82533 | 24892 ft | 405 kts | 77° |
| 2026-04-13 19:21 | 38.54949 | 60.86013 | 24893 ft | 405 kts | 77° |
| 2026-04-13 19:21 | 38.55658 | 60.89494 | 24892 ft | 404 kts | 77° |
| 2026-04-13 19:22 | 38.56368 | 60.92982 | 24892 ft | 405 kts | 77° |
| 2026-04-13 19:22 | 38.57067 | 60.96420 | 24891 ft | 405 kts | 77° |
| 2026-04-13 19:22 | 38.57775 | 60.99909 | 24895 ft | 405 kts | 77° |
| 2026-04-13 19:22 | 38.58484 | 61.03412 | 24894 ft | 405 kts | 77° |
| 2026-04-13 19:23 | 38.59188 | 61.06894 | 24896 ft | 406 kts | 77° |
| 2026-04-13 19:23 | 38.59888 | 61.10360 | 24896 ft | 405 kts | 77° |
| 2026-04-13 19:23 | 38.60586 | 61.13827 | 24897 ft | 406 kts | 77° |
| 2026-04-13 19:23 | 38.61294 | 61.17349 | 24900 ft | 405 kts | 77° |
| 2026-04-13 19:24 | 38.61993 | 61.20829 | 24897 ft | 405 kts | 77° |
| 2026-04-13 19:24 | 38.62688 | 61.24295 | 24901 ft | 406 kts | 77° |
| 2026-04-13 19:24 | 38.63391 | 61.27804 | 24903 ft | 406 kts | 77° |
| 2026-04-13 19:24 | 38.64081 | 61.31256 | 24904 ft | 404 kts | 77° |
| 2026-04-13 19:25 | 38.64780 | 61.34757 | 24903 ft | 405 kts | 77° |
| 2026-04-13 19:25 | 38.65470 | 61.38218 | 24906 ft | 404 kts | 77° |
| 2026-04-13 19:25 | 38.66065 | 61.41727 | 24902 ft | 403 kts | 80° |
| 2026-04-13 19:25 | 38.66540 | 61.45247 | 24906 ft | 404 kts | 82° |
| 2026-04-13 19:26 | 38.66965 | 61.48800 | 24904 ft | 403 kts | 83° |
| 2026-04-13 19:26 | 38.67367 | 61.52283 | 24902 ft | 402 kts | 83° |
| 2026-04-13 19:26 | 38.67778 | 61.55828 | 24907 ft | 403 kts | 82° |
| 2026-04-13 19:26 | 38.68196 | 61.59379 | 24904 ft | 403 kts | 82° |
| 2026-04-13 19:27 | 38.68622 | 61.62937 | 24905 ft | 404 kts | 82° |
| 2026-04-13 19:27 | 38.69045 | 61.66423 | 24902 ft | 404 kts | 83° |
| 2026-04-13 19:27 | 38.69480 | 61.69980 | 24906 ft | 403 kts | 82° |
| 2026-04-13 19:27 | 38.69911 | 61.73481 | 24809 ft | 399 kts | 83° |
| 2026-04-13 19:28 | 38.70338 | 61.76944 | 24583 ft | 389 kts | 82° |
| 2026-04-13 19:28 | 38.70761 | 61.80376 | 24239 ft | 390 kts | 82° |
| 2026-04-13 19:28 | 38.71182 | 61.83801 | 23791 ft | 395 kts | 82° |
| 2026-04-13 19:28 | 38.71605 | 61.87257 | 23311 ft | 392 kts | 82° |
| 2026-04-13 19:29 | 38.72024 | 61.90678 | 22846 ft | 388 kts | 82° |
| 2026-04-13 19:29 | 38.72436 | 61.94050 | 22386 ft | 385 kts | 83° |
| 2026-04-13 19:29 | 38.72846 | 61.97406 | 21917 ft | 381 kts | 83° |
| 2026-04-13 19:29 | 38.73254 | 62.00756 | 21454 ft | 378 kts | 82° |
| 2026-04-13 19:30 | 38.73651 | 62.04028 | 21005 ft | 375 kts | 83° |
| 2026-04-13 19:30 | 38.74047 | 62.07305 | 20545 ft | 372 kts | 82° |
| 2026-04-13 19:30 | 38.74441 | 62.10566 | 20086 ft | 369 kts | 82° |
| 2026-04-13 19:30 | 38.74831 | 62.13804 | 19632 ft | 366 kts | 82° |
| 2026-04-13 19:31 | 38.75216 | 62.17007 | 19180 ft | 363 kts | 82° |
| 2026-04-13 19:31 | 38.75593 | 62.20154 | 18736 ft | 360 kts | 82° |
| 2026-04-13 19:31 | 38.75970 | 62.23299 | 18292 ft | 357 kts | 82° |
| 2026-04-13 19:31 | 38.76345 | 62.26447 | 17846 ft | 355 kts | 82° |
| 2026-04-13 19:32 | 38.76716 | 62.29556 | 17411 ft | 352 kts | 82° |
| 2026-04-13 19:32 | 38.77079 | 62.32617 | 16979 ft | 349 kts | 82° |
| 2026-04-13 19:32 | 38.77444 | 62.35691 | 16548 ft | 347 kts | 83° |
| 2026-04-13 19:32 | 38.77800 | 62.38712 | 16118 ft | 345 kts | 83° |
| 2026-04-13 19:33 | 38.78159 | 62.41754 | 15688 ft | 342 kts | 83° |
| 2026-04-13 19:33 | 38.78512 | 62.44753 | 15265 ft | 340 kts | 82° |
| 2026-04-13 19:33 | 38.78859 | 62.47702 | 14846 ft | 338 kts | 83° |
| 2026-04-13 19:34 | 38.79556 | 62.53627 | 13998 ft | 334 kts | 82° |
| 2026-04-13 19:34 | 38.80005 | 62.56527 | 13580 ft | 333 kts | 77° |
| 2026-04-13 19:34 | 38.80677 | 62.59361 | 13159 ft | 332 kts | 72° |
| 2026-04-13 19:34 | 38.81472 | 62.62113 | 12743 ft | 331 kts | 70° |
| 2026-04-13 19:35 | 38.82314 | 62.64854 | 12323 ft | 329 kts | 69° |
| 2026-04-13 19:35 | 38.83150 | 62.67571 | 11907 ft | 327 kts | 70° |
| 2026-04-13 19:35 | 38.83962 | 62.70253 | 11508 ft | 324 kts | 70° |
| 2026-04-13 19:35 | 38.84768 | 62.72958 | 11137 ft | 320 kts | 70° |
| 2026-04-13 19:36 | 38.85541 | 62.75584 | 10744 ft | 318 kts | 71° |
| 2026-04-13 19:36 | 38.86317 | 62.78235 | 10334 ft | 316 kts | 70° |
| 2026-04-13 19:36 | 38.87074 | 62.80828 | 10035 ft | 310 kts | 70° |
| 2026-04-13 19:36 | 38.87822 | 62.83389 | 9903 ft | 298 kts | 70° |
| 2026-04-13 19:37 | 38.88543 | 62.85864 | 9535 ft | 297 kts | 70° |
| 2026-04-13 19:37 | 38.89257 | 62.88316 | 9161 ft | 296 kts | 70° |
| 2026-04-13 19:37 | 38.89972 | 62.90768 | 8807 ft | 294 kts | 70° |
| 2026-04-13 19:37 | 38.90690 | 62.93237 | 8451 ft | 292 kts | 70° |
| 2026-04-13 19:38 | 38.91391 | 62.95652 | 8101 ft | 290 kts | 70° |
| 2026-04-13 19:38 | 38.92089 | 62.98052 | 7754 ft | 287 kts | 70° |
| 2026-04-13 19:38 | 38.92777 | 63.00427 | 7412 ft | 285 kts | 70° |
| 2026-04-13 19:38 | 38.93470 | 63.02816 | 7064 ft | 283 kts | 70° |
| 2026-04-13 19:39 | 38.94150 | 63.05163 | 6721 ft | 278 kts | 70° |
| 2026-04-13 19:39 | 38.94815 | 63.07458 | 6397 ft | 271 kts | 70° |
| 2026-04-13 19:39 | 38.95458 | 63.09680 | 6076 ft | 267 kts | 70° |
| 2026-04-13 19:39 | 38.96101 | 63.11905 | 5752 ft | 263 kts | 70° |
| 2026-04-13 19:40 | 38.96735 | 63.14104 | 5431 ft | 260 kts | 70° |
| 2026-04-13 19:40 | 38.97355 | 63.16253 | 5122 ft | 257 kts | 70° |
| 2026-04-13 19:40 | 38.97969 | 63.18383 | 4809 ft | 254 kts | 70° |
| 2026-04-13 19:40 | 38.98579 | 63.20502 | 4506 ft | 251 kts | 70° |
| 2026-04-13 19:41 | 38.99182 | 63.22594 | 4285 ft | 246 kts | 70° |
| 2026-04-13 19:41 | 38.99761 | 63.24610 | 4154 ft | 236 kts | 70° |
| 2026-04-13 19:41 | 39.00318 | 63.26548 | 4020 ft | 227 kts | 70° |
| 2026-04-13 19:42 | 39.01384 | 63.30262 | 3575 ft | 218 kts | 70° |
| 2026-04-13 19:42 | 39.01899 | 63.32060 | 3358 ft | 211 kts | 70° |
| 2026-04-13 19:42 | 39.02348 | 63.33808 | 3148 ft | 204 kts | 76° |
| 2026-04-13 19:42 | 39.02535 | 63.35552 | 3015 ft | 194 kts | 85° |
| 2026-04-13 19:43 | 39.02620 | 63.37241 | 2882 ft | 185 kts | 85° |
| 2026-04-13 19:43 | 39.02714 | 63.38874 | 2717 ft | 179 kts | 84° |
| 2026-04-13 19:43 | 39.02810 | 63.40447 | 2572 ft | 173 kts | 87° |
| 2026-04-13 19:43 | 39.02596 | 63.41911 | 2495 ft | 166 kts | 116° |
| 2026-04-13 19:44 | 39.01870 | 63.43028 | 2503 ft | 160 kts | 129° |
| 2026-04-13 19:44 | 39.01148 | 63.44061 | 2505 ft | 151 kts | 126° |
| 2026-04-13 19:44 | 39.00486 | 63.45078 | 2502 ft | 148 kts | 125° |
| 2026-04-13 19:44 | 38.99817 | 63.46106 | 2452 ft | 148 kts | 126° |
| 2026-04-13 19:45 | 38.99171 | 63.47086 | 2216 ft | 140 kts | 125° |
| 2026-04-13 19:45 | 38.98560 | 63.48008 | 2000 ft | 135 kts | 125° |
| 2026-04-13 19:45 | 38.97951 | 63.48933 | 1816 ft | 135 kts | 124° |
| 2026-04-13 19:45 | 38.97348 | 63.49846 | 1635 ft | 135 kts | 125° |
| 2026-04-13 19:46 | 38.96738 | 63.50771 | 1439 ft | 135 kts | 125° |
| 2026-04-13 19:46 | 38.96137 | 63.51716 | 1221 ft | 137 kts | 123° |
| 2026-04-13 19:46 | 38.95550 | 63.52655 | 1019 ft | 137 kts | 126° |
| 2026-04-13 19:46 | 38.94935 | 63.53574 | 864 ft | 133 kts | 127° |
| 2026-04-13 19:47 | 38.94333 | 63.54494 | 720 ft | 134 kts | 126° |
| 2026-04-13 19:47 | 38.93731 | 63.55398 | 643 ft | 124 kts | 128° |
| 2026-04-13 19:47 | 38.93292 | 63.56065 | 641 ft | 77 kts | 130° |
| 2026-04-13 19:47 | 38.92999 | 63.56502 | 638 ft | 54 kts | 130° |
| 2026-04-13 19:48 | 38.92778 | 63.56834 | 635 ft | 37 kts | 130° |
| 2026-04-13 19:48 | 38.92618 | 63.57072 | 636 ft | 28 kts | 130° |
| 2026-04-13 19:48 | 38.92542 | 63.57196 | 638 ft | 14 kts | 116° |
| 2026-04-13 19:48 | 38.92511 | 63.57299 | 640 ft | 11 kts | 108° |
| 2026-04-13 19:49 | 38.92495 | 63.57397 | 641 ft | 11 kts | 98° |
| 2026-04-13 19:49 | 38.92488 | 63.57494 | 641 ft | 6 kts | 72° |
| 2026-04-13 19:49 | 38.92522 | 63.57525 | 641 ft | 6 kts | 6° |
| 2026-04-13 19:49 | 38.92562 | 63.57496 | 641 ft | 9 kts | 309° |
| 2026-04-13 19:50 | 38.92630 | 63.57394 | 639 ft | 21 kts | 309° |
| 2026-04-13 19:50 | 38.92736 | 63.57234 | 638 ft | 23 kts | 310° |
| 2026-04-13 19:50 | 38.92847 | 63.57066 | 636 ft | 25 kts | 309° |
| 2026-04-13 19:50 | 38.92959 | 63.56902 | 635 ft | 22 kts | 309° |
| 2026-04-13 19:51 | 38.93059 | 63.56749 | 636 ft | 21 kts | 310° |
| 2026-04-13 19:51 | 38.93146 | 63.56620 | 638 ft | 16 kts | 310° |
| 2026-04-13 19:51 | 38.93197 | 63.56557 | 638 ft | 8 kts | 343° |
| 2026-04-13 19:51 | 38.93245 | 63.56576 | 639 ft | 7 kts | 39° |
| 2026-04-13 19:52 | 38.93297 | 63.56633 | 640 ft | 13 kts | 40° |
| 2026-04-13 19:52 | 38.93364 | 63.56706 | 641 ft | 11 kts | 39° |
| 2026-04-13 19:52 | 38.93422 | 63.56724 | 641 ft | 9 kts | 334° |
| 2026-04-13 19:52 | 38.93466 | 63.56663 | 641 ft | 9 kts | 310° |
| 2026-04-13 19:53 | 38.93509 | 63.56600 | 641 ft | 9 kts | 311° |
| 2026-04-13 19:53 | 38.93539 | 63.56561 | 642 ft | 2 kts | 343° |
| 2026-04-13 19:53 | 38.93555 | 63.56570 | 642 ft | 3 kts | 41° |
| 2026-04-13 19:53 | 38.93575 | 63.56593 | 642 ft | 4 kts | 40° |
| 2026-04-13 19:54 | 38.93597 | 63.56617 | 643 ft | 3 kts | 40° |
| 2026-04-13 19:54 | 38.93613 | 63.56635 | 643 ft | 2 kts | 39° |
| 2026-04-13 19:54 | 38.93619 | 63.56641 | 643 ft | 0 kts | 40° |